sensor_id;sensor_type;location;lat;lon;timestamp;temperature;humidity
11615;DHT22;5863;52.832;4.758;2022-10-17T00:00:03;14.10;99.90
11615;DHT22;5863;52.832;4.758;2022-10-17T00:02:31;14.20;99.90
11615;DHT22;5863;52.832;4.758;2022-10-17T00:04:58;14.10;99.90
11615;DHT22;5863;52.832;4.758;2022-10-17T00:07:24;14.20;99.90
11615;DHT22;5863;52.832;4.758;2022-10-17T00:09:51;14.20;99.90
11615;DHT22;5863;52.832;4.758;2022-10-17T00:12:18;14.20;99.90
11615;DHT22;5863;52.832;4.758;2022-10-17T00:14:44;14.30;99.90
11615;DHT22;5863;52.832;4.758;2022-10-17T00:17:11;14.30;99.90
11615;DHT22;5863;52.832;4.758;2022-10-17T00:19:40;14.30;99.90
11615;DHT22;5863;52.832;4.758;2022-10-17T00:22:07;14.30;99.90
11615;DHT22;5863;52.832;4.758;2022-10-17T00:24:34;14.30;99.90
11615;DHT22;5863;52.832;4.758;2022-10-17T00:27:01;14.40;99.90
11615;DHT22;5863;52.832;4.758;2022-10-17T00:29:27;14.40;99.90
11615;DHT22;5863;52.832;4.758;2022-10-17T00:31:54;14.30;99.90
11615;DHT22;5863;52.832;4.758;2022-10-17T00:34:21;14.40;99.90
11615;DHT22;5863;52.832;4.758;2022-10-17T00:36:49;14.40;99.90
11615;DHT22;5863;52.832;4.758;2022-10-17T00:39:16;14.30;99.90
11615;DHT22;5863;52.832;4.758;2022-10-17T00:41:43;14.20;99.90
11615;DHT22;5863;52.832;4.758;2022-10-17T00:47:14;14.30;99.90
11615;DHT22;5863;52.832;4.758;2022-10-17T00:49:42;14.30;99.90
11615;DHT22;5863;52.832;4.758;2022-10-17T00:52:13;14.40;99.90
11615;DHT22;5863;52.832;4.758;2022-10-17T00:54:45;14.30;99.90
11615;DHT22;5863;52.832;4.758;2022-10-17T00:57:14;14.40;99.90
11615;DHT22;5863;52.832;4.758;2022-10-17T00:59:43;14.40;99.90
11615;DHT22;5863;52.832;4.758;2022-10-17T01:02:15;14.50;99.90
11615;DHT22;5863;52.832;4.758;2022-10-17T01:04:44;14.50;99.90
11615;DHT22;5863;52.832;4.758;2022-10-17T01:07:13;14.50;99.90
11615;DHT22;5863;52.832;4.758;2022-10-17T01:09:40;14.50;99.90
11615;DHT22;5863;52.832;4.758;2022-10-17T01:12:15;14.50;99.90
11615;DHT22;5863;52.832;4.758;2022-10-17T01:14:49;14.50;99.90
11615;DHT22;5863;52.832;4.758;2022-10-17T01:17:23;14.40;99.90
11615;DHT22;5863;52.832;4.758;2022-10-17T01:20:16;14.40;99.90
11615;DHT22;5863;52.832;4.758;2022-10-17T01:22:58;14.40;99.90
11615;DHT22;5863;52.832;4.758;2022-10-17T01:25:35;14.30;99.90
11615;DHT22;5863;52.832;4.758;2022-10-17T01:28:21;14.40;99.90
11615;DHT22;5863;52.832;4.758;2022-10-17T01:31:01;14.40;99.90
11615;DHT22;5863;52.832;4.758;2022-10-17T01:33:43;14.40;99.90
11615;DHT22;5863;52.832;4.758;2022-10-17T01:36:17;14.40;99.90
11615;DHT22;5863;52.832;4.758;2022-10-17T01:38:47;14.40;99.90
11615;DHT22;5863;52.832;4.758;2022-10-17T01:41:23;14.40;99.90
11615;DHT22;5863;52.832;4.758;2022-10-17T01:43:54;14.40;99.90
11615;DHT22;5863;52.832;4.758;2022-10-17T01:46:26;14.40;99.90
11615;DHT22;5863;52.832;4.758;2022-10-17T01:48:55;14.40;99.90
11615;DHT22;5863;52.832;4.758;2022-10-17T01:51:26;14.40;99.90
11615;DHT22;5863;52.832;4.758;2022-10-17T01:53:59;14.40;99.90
11615;DHT22;5863;52.832;4.758;2022-10-17T01:56:29;14.30;99.90
11615;DHT22;5863;52.832;4.758;2022-10-17T01:59:00;14.30;99.90
11615;DHT22;5863;52.832;4.758;2022-10-17T02:01:29;14.30;99.90
11615;DHT22;5863;52.832;4.758;2022-10-17T02:03:57;14.20;99.90
11615;DHT22;5863;52.832;4.758;2022-10-17T02:06:24;14.30;99.90
11615;DHT22;5863;52.832;4.758;2022-10-17T02:08:51;14.30;99.90
11615;DHT22;5863;52.832;4.758;2022-10-17T02:11:19;14.20;99.90
11615;DHT22;5863;52.832;4.758;2022-10-17T02:14:01;14.20;99.90
11615;DHT22;5863;52.832;4.758;2022-10-17T02:16:36;14.20;99.90
11615;DHT22;5863;52.832;4.758;2022-10-17T02:19:17;14.20;99.90
11615;DHT22;5863;52.832;4.758;2022-10-17T02:22:00;14.20;99.90
11615;DHT22;5863;52.832;4.758;2022-10-17T02:24:33;14.20;99.90
11615;DHT22;5863;52.832;4.758;2022-10-17T02:27:07;14.20;99.90
11615;DHT22;5863;52.832;4.758;2022-10-17T02:29:42;14.20;99.90
11615;DHT22;5863;52.832;4.758;2022-10-17T02:32:15;14.20;99.90
11615;DHT22;5863;52.832;4.758;2022-10-17T02:34:46;14.20;99.90
11615;DHT22;5863;52.832;4.758;2022-10-17T02:37:17;14.10;99.90
11615;DHT22;5863;52.832;4.758;2022-10-17T02:39:46;14.20;99.90
11615;DHT22;5863;52.832;4.758;2022-10-17T02:42:13;14.10;99.90
11615;DHT22;5863;52.832;4.758;2022-10-17T02:44:43;14.10;99.90
11615;DHT22;5863;52.832;4.758;2022-10-17T02:47:17;14.10;99.90
11615;DHT22;5863;52.832;4.758;2022-10-17T02:49:48;14.10;99.90
11615;DHT22;5863;52.832;4.758;2022-10-17T02:52:18;14.10;99.90
11615;DHT22;5863;52.832;4.758;2022-10-17T02:54:50;14.10;99.90
11615;DHT22;5863;52.832;4.758;2022-10-17T02:57:21;14.10;99.90
11615;DHT22;5863;52.832;4.758;2022-10-17T02:59:58;14.10;99.90
11615;DHT22;5863;52.832;4.758;2022-10-17T03:02:27;14.10;99.90
11615;DHT22;5863;52.832;4.758;2022-10-17T03:04:54;14.10;99.90
11615;DHT22;5863;52.832;4.758;2022-10-17T03:07:21;14.00;99.90
11615;DHT22;5863;52.832;4.758;2022-10-17T03:09:47;13.90;99.90
11615;DHT22;5863;52.832;4.758;2022-10-17T03:12:16;13.90;99.90
11615;DHT22;5863;52.832;4.758;2022-10-17T03:14:43;13.90;99.90
11615;DHT22;5863;52.832;4.758;2022-10-17T03:17:09;13.90;99.90
11615;DHT22;5863;52.832;4.758;2022-10-17T03:19:37;13.90;99.90
11615;DHT22;5863;52.832;4.758;2022-10-17T03:22:14;13.80;99.90
11615;DHT22;5863;52.832;4.758;2022-10-17T03:24:41;13.90;99.90
11615;DHT22;5863;52.832;4.758;2022-10-17T03:27:08;13.90;99.90
11615;DHT22;5863;52.832;4.758;2022-10-17T03:29:34;13.90;99.90
11615;DHT22;5863;52.832;4.758;2022-10-17T03:32:01;14.00;99.90
11615;DHT22;5863;52.832;4.758;2022-10-17T03:34:30;14.00;99.90
11615;DHT22;5863;52.832;4.758;2022-10-17T03:36:58;14.10;99.90
11615;DHT22;5863;52.832;4.758;2022-10-17T03:39:25;14.10;99.90
11615;DHT22;5863;52.832;4.758;2022-10-17T03:41:52;14.20;99.90
11615;DHT22;5863;52.832;4.758;2022-10-17T03:44:18;14.20;99.90
11615;DHT22;5863;52.832;4.758;2022-10-17T03:46:45;14.20;99.90
11615;DHT22;5863;52.832;4.758;2022-10-17T03:49:12;14.20;99.90
11615;DHT22;5863;52.832;4.758;2022-10-17T03:51:38;14.20;99.90
11615;DHT22;5863;52.832;4.758;2022-10-17T03:54:06;14.20;99.90
11615;DHT22;5863;52.832;4.758;2022-10-17T03:56:33;14.20;99.90
11615;DHT22;5863;52.832;4.758;2022-10-17T03:59:00;14.20;99.90
11615;DHT22;5863;52.832;4.758;2022-10-17T04:01:26;14.20;99.90
11615;DHT22;5863;52.832;4.758;2022-10-17T04:03:55;14.30;99.90
11615;DHT22;5863;52.832;4.758;2022-10-17T04:06:22;14.30;99.90
11615;DHT22;5863;52.832;4.758;2022-10-17T04:08:49;14.30;99.90
11615;DHT22;5863;52.832;4.758;2022-10-17T04:11:25;14.40;99.90
11615;DHT22;5863;52.832;4.758;2022-10-17T04:13:53;14.40;99.90
11615;DHT22;5863;52.832;4.758;2022-10-17T04:16:21;14.40;99.90
11615;DHT22;5863;52.832;4.758;2022-10-17T04:18:52;14.40;99.90
11615;DHT22;5863;52.832;4.758;2022-10-17T04:21:19;14.50;99.90
11615;DHT22;5863;52.832;4.758;2022-10-17T04:23:47;14.50;99.90
11615;DHT22;5863;52.832;4.758;2022-10-17T04:26:13;14.50;99.90
11615;DHT22;5863;52.832;4.758;2022-10-17T04:28:41;14.50;99.90
11615;DHT22;5863;52.832;4.758;2022-10-17T04:31:11;14.50;99.90
11615;DHT22;5863;52.832;4.758;2022-10-17T04:33:40;14.50;99.90
11615;DHT22;5863;52.832;4.758;2022-10-17T04:36:10;14.60;99.90
11615;DHT22;5863;52.832;4.758;2022-10-17T04:38:37;14.60;99.90
11615;DHT22;5863;52.832;4.758;2022-10-17T04:41:06;14.70;99.90
11615;DHT22;5863;52.832;4.758;2022-10-17T04:43:35;14.70;99.90
11615;DHT22;5863;52.832;4.758;2022-10-17T04:46:05;14.70;99.90
11615;DHT22;5863;52.832;4.758;2022-10-17T04:48:32;14.70;99.90
11615;DHT22;5863;52.832;4.758;2022-10-17T04:51:00;14.70;99.90
11615;DHT22;5863;52.832;4.758;2022-10-17T04:53:27;14.70;99.90
11615;DHT22;5863;52.832;4.758;2022-10-17T04:55:55;14.70;99.90
11615;DHT22;5863;52.832;4.758;2022-10-17T04:58:22;14.70;99.90
11615;DHT22;5863;52.832;4.758;2022-10-17T05:00:49;14.70;99.90
11615;DHT22;5863;52.832;4.758;2022-10-17T05:03:17;14.70;99.90
11615;DHT22;5863;52.832;4.758;2022-10-17T05:05:43;14.70;99.90
11615;DHT22;5863;52.832;4.758;2022-10-17T05:08:11;14.80;99.90
11615;DHT22;5863;52.832;4.758;2022-10-17T05:10:40;14.80;99.90
11615;DHT22;5863;52.832;4.758;2022-10-17T05:13:07;14.80;99.90
11615;DHT22;5863;52.832;4.758;2022-10-17T05:15:35;14.80;99.90
11615;DHT22;5863;52.832;4.758;2022-10-17T05:18:04;14.80;99.90
11615;DHT22;5863;52.832;4.758;2022-10-17T05:20:33;14.80;99.90
11615;DHT22;5863;52.832;4.758;2022-10-17T05:23:00;14.80;99.90
11615;DHT22;5863;52.832;4.758;2022-10-17T05:25:27;14.80;99.90
11615;DHT22;5863;52.832;4.758;2022-10-17T05:27:53;14.90;99.90
11615;DHT22;5863;52.832;4.758;2022-10-17T05:30:20;14.90;99.90
11615;DHT22;5863;52.832;4.758;2022-10-17T05:32:47;14.90;99.90
11615;DHT22;5863;52.832;4.758;2022-10-17T05:35:14;14.90;99.90
11615;DHT22;5863;52.832;4.758;2022-10-17T05:37:46;15.00;99.90
11615;DHT22;5863;52.832;4.758;2022-10-17T05:40:13;15.00;99.90
11615;DHT22;5863;52.832;4.758;2022-10-17T05:42:44;15.00;99.90
11615;DHT22;5863;52.832;4.758;2022-10-17T05:45:11;15.00;99.90
11615;DHT22;5863;52.832;4.758;2022-10-17T05:47:39;15.10;99.90
11615;DHT22;5863;52.832;4.758;2022-10-17T05:50:06;15.10;99.90
11615;DHT22;5863;52.832;4.758;2022-10-17T05:52:33;15.10;99.90
11615;DHT22;5863;52.832;4.758;2022-10-17T05:55:17;15.10;99.90
11615;DHT22;5863;52.832;4.758;2022-10-17T05:57:45;15.10;99.90
11615;DHT22;5863;52.832;4.758;2022-10-17T06:00:12;15.20;99.90
11615;DHT22;5863;52.832;4.758;2022-10-17T06:02:39;15.20;99.90
11615;DHT22;5863;52.832;4.758;2022-10-17T06:05:15;15.30;99.90
11615;DHT22;5863;52.832;4.758;2022-10-17T06:07:42;15.30;99.90
11615;DHT22;5863;52.832;4.758;2022-10-17T06:10:09;15.30;99.90
11615;DHT22;5863;52.832;4.758;2022-10-17T06:12:38;15.30;99.90
11615;DHT22;5863;52.832;4.758;2022-10-17T06:15:05;15.50;99.90
11615;DHT22;5863;52.832;4.758;2022-10-17T06:17:34;15.50;99.90
11615;DHT22;5863;52.832;4.758;2022-10-17T06:20:04;15.70;99.90
11615;DHT22;5863;52.832;4.758;2022-10-17T06:22:31;15.70;99.90
11615;DHT22;5863;52.832;4.758;2022-10-17T06:24:57;15.80;99.90
11615;DHT22;5863;52.832;4.758;2022-10-17T06:27:24;15.80;99.90
11615;DHT22;5863;52.832;4.758;2022-10-17T06:29:52;15.80;99.90
11615;DHT22;5863;52.832;4.758;2022-10-17T06:32:18;15.90;99.90
11615;DHT22;5863;52.832;4.758;2022-10-17T06:34:48;15.90;99.90
11615;DHT22;5863;52.832;4.758;2022-10-17T06:37:14;15.90;99.90
11615;DHT22;5863;52.832;4.758;2022-10-17T06:39:41;16.00;99.90
11615;DHT22;5863;52.832;4.758;2022-10-17T06:42:08;16.00;99.90
11615;DHT22;5863;52.832;4.758;2022-10-17T06:44:35;16.00;99.90
11615;DHT22;5863;52.832;4.758;2022-10-17T06:47:13;16.00;99.90
11615;DHT22;5863;52.832;4.758;2022-10-17T06:49:40;16.10;99.90
11615;DHT22;5863;52.832;4.758;2022-10-17T06:52:08;16.10;99.90
11615;DHT22;5863;52.832;4.758;2022-10-17T06:54:35;16.20;99.90
11615;DHT22;5863;52.832;4.758;2022-10-17T06:57:09;16.20;99.90
11615;DHT22;5863;52.832;4.758;2022-10-17T06:59:37;16.20;99.90
11615;DHT22;5863;52.832;4.758;2022-10-17T07:02:04;16.20;99.90
11615;DHT22;5863;52.832;4.758;2022-10-17T07:04:32;16.30;99.90
11615;DHT22;5863;52.832;4.758;2022-10-17T07:06:59;16.30;99.90
11615;DHT22;5863;52.832;4.758;2022-10-17T07:09:27;16.30;99.90
11615;DHT22;5863;52.832;4.758;2022-10-17T07:11:55;16.30;99.90
11615;DHT22;5863;52.832;4.758;2022-10-17T07:14:22;16.30;99.90
11615;DHT22;5863;52.832;4.758;2022-10-17T07:16:50;16.30;99.90
11615;DHT22;5863;52.832;4.758;2022-10-17T07:19:17;16.30;99.90
11615;DHT22;5863;52.832;4.758;2022-10-17T07:21:45;16.40;99.90
11615;DHT22;5863;52.832;4.758;2022-10-17T07:24:12;16.50;99.90
11615;DHT22;5863;52.832;4.758;2022-10-17T07:26:38;16.50;99.90
11615;DHT22;5863;52.832;4.758;2022-10-17T07:29:05;16.50;99.90
11615;DHT22;5863;52.832;4.758;2022-10-17T07:31:32;16.60;99.90
11615;DHT22;5863;52.832;4.758;2022-10-17T07:33:59;16.60;99.90
11615;DHT22;5863;52.832;4.758;2022-10-17T07:36:26;16.60;99.90
11615;DHT22;5863;52.832;4.758;2022-10-17T07:38:54;16.60;99.90
11615;DHT22;5863;52.832;4.758;2022-10-17T07:41:21;16.60;99.90
11615;DHT22;5863;52.832;4.758;2022-10-17T07:43:47;16.60;99.90
11615;DHT22;5863;52.832;4.758;2022-10-17T07:46:14;16.50;99.90
11615;DHT22;5863;52.832;4.758;2022-10-17T07:48:41;16.50;99.90
11615;DHT22;5863;52.832;4.758;2022-10-17T07:51:08;16.50;99.90
11615;DHT22;5863;52.832;4.758;2022-10-17T07:53:36;16.60;99.90
11615;DHT22;5863;52.832;4.758;2022-10-17T07:56:06;16.70;99.90
11615;DHT22;5863;52.832;4.758;2022-10-17T07:58:33;16.70;99.90
11615;DHT22;5863;52.832;4.758;2022-10-17T08:01:01;16.80;99.90
11615;DHT22;5863;52.832;4.758;2022-10-17T08:03:27;16.80;99.90
11615;DHT22;5863;52.832;4.758;2022-10-17T08:05:56;16.80;99.90
11615;DHT22;5863;52.832;4.758;2022-10-17T08:08:23;16.90;99.90
11615;DHT22;5863;52.832;4.758;2022-10-17T08:10:50;16.90;99.90
11615;DHT22;5863;52.832;4.758;2022-10-17T08:13:19;16.90;99.90
11615;DHT22;5863;52.832;4.758;2022-10-17T08:15:46;17.00;99.90
11615;DHT22;5863;52.832;4.758;2022-10-17T08:18:13;17.00;99.90
11615;DHT22;5863;52.832;4.758;2022-10-17T08:20:40;17.10;99.90
11615;DHT22;5863;52.832;4.758;2022-10-17T08:23:06;17.20;99.90
11615;DHT22;5863;52.832;4.758;2022-10-17T08:25:33;17.10;99.90
11615;DHT22;5863;52.832;4.758;2022-10-17T08:28:00;17.20;99.90
11615;DHT22;5863;52.832;4.758;2022-10-17T08:30:28;17.10;99.90
11615;DHT22;5863;52.832;4.758;2022-10-17T08:32:55;17.10;99.90
11615;DHT22;5863;52.832;4.758;2022-10-17T08:35:22;17.20;99.90
11615;DHT22;5863;52.832;4.758;2022-10-17T08:37:49;17.20;99.90
11615;DHT22;5863;52.832;4.758;2022-10-17T08:40:20;17.20;99.90
11615;DHT22;5863;52.832;4.758;2022-10-17T08:43:15;17.20;99.90
11615;DHT22;5863;52.832;4.758;2022-10-17T08:45:51;17.20;99.90
11615;DHT22;5863;52.832;4.758;2022-10-17T08:48:22;17.10;99.90
11615;DHT22;5863;52.832;4.758;2022-10-17T08:50:53;17.10;99.90
11615;DHT22;5863;52.832;4.758;2022-10-17T08:53:26;17.10;99.90
11615;DHT22;5863;52.832;4.758;2022-10-17T08:55:55;17.10;99.90
11615;DHT22;5863;52.832;4.758;2022-10-17T08:58:24;17.10;99.90
11615;DHT22;5863;52.832;4.758;2022-10-17T09:01:02;17.00;99.90
11615;DHT22;5863;52.832;4.758;2022-10-17T09:03:40;17.00;99.90
11615;DHT22;5863;52.832;4.758;2022-10-17T09:06:17;17.00;99.90
11615;DHT22;5863;52.832;4.758;2022-10-17T09:08:56;16.90;99.90
11615;DHT22;5863;52.832;4.758;2022-10-17T09:11:41;16.90;99.90
11615;DHT22;5863;52.832;4.758;2022-10-17T09:14:20;16.90;99.90
11615;DHT22;5863;52.832;4.758;2022-10-17T09:17:14;16.90;99.90
11615;DHT22;5863;52.832;4.758;2022-10-17T09:19:44;16.90;99.90
11615;DHT22;5863;52.832;4.758;2022-10-17T09:22:16;16.80;99.90
11615;DHT22;5863;52.832;4.758;2022-10-17T09:24:48;16.80;99.90
11615;DHT22;5863;52.832;4.758;2022-10-17T09:27:21;16.80;99.90
11615;DHT22;5863;52.832;4.758;2022-10-17T09:29:52;16.80;99.90
11615;DHT22;5863;52.832;4.758;2022-10-17T09:32:23;16.80;99.90
11615;DHT22;5863;52.832;4.758;2022-10-17T09:34:51;16.80;99.90
11615;DHT22;5863;52.832;4.758;2022-10-17T09:37:18;16.80;99.90
11615;DHT22;5863;52.832;4.758;2022-10-17T09:39:51;16.80;99.90
11615;DHT22;5863;52.832;4.758;2022-10-17T09:42:19;16.80;99.90
11615;DHT22;5863;52.832;4.758;2022-10-17T09:44:51;16.80;99.90
11615;DHT22;5863;52.832;4.758;2022-10-17T09:47:27;16.70;99.90
11615;DHT22;5863;52.832;4.758;2022-10-17T09:49:56;16.70;99.90
11615;DHT22;5863;52.832;4.758;2022-10-17T09:52:26;16.80;99.90
11615;DHT22;5863;52.832;4.758;2022-10-17T09:54:56;16.70;99.90
11615;DHT22;5863;52.832;4.758;2022-10-17T09:57:24;16.70;99.90
11615;DHT22;5863;52.832;4.758;2022-10-17T09:59:57;16.80;99.90
11615;DHT22;5863;52.832;4.758;2022-10-17T10:02:26;16.80;99.90
11615;DHT22;5863;52.832;4.758;2022-10-17T10:04:59;16.90;99.90
11615;DHT22;5863;52.832;4.758;2022-10-17T10:07:27;16.90;99.90
11615;DHT22;5863;52.832;4.758;2022-10-17T10:09:58;16.90;99.90
11615;DHT22;5863;52.832;4.758;2022-10-17T10:12:28;17.00;99.90
11615;DHT22;5863;52.832;4.758;2022-10-17T10:14:55;17.00;99.90
11615;DHT22;5863;52.832;4.758;2022-10-17T10:17:34;17.00;99.90
11615;DHT22;5863;52.832;4.758;2022-10-17T10:20:05;17.20;99.90
11615;DHT22;5863;52.832;4.758;2022-10-17T10:23:09;17.20;99.90
11615;DHT22;5863;52.832;4.758;2022-10-17T10:25:39;17.30;99.90
11615;DHT22;5863;52.832;4.758;2022-10-17T10:28:16;17.30;99.90
11615;DHT22;5863;52.832;4.758;2022-10-17T10:30:46;17.40;99.90
11615;DHT22;5863;52.832;4.758;2022-10-17T10:33:15;17.40;99.90
11615;DHT22;5863;52.832;4.758;2022-10-17T10:35:51;17.40;99.90
11615;DHT22;5863;52.832;4.758;2022-10-17T10:38:20;17.40;99.90
11615;DHT22;5863;52.832;4.758;2022-10-17T10:40:48;17.30;99.90
11615;DHT22;5863;52.832;4.758;2022-10-17T10:43:22;17.30;99.90
11615;DHT22;5863;52.832;4.758;2022-10-17T10:45:50;17.30;99.90
11615;DHT22;5863;52.832;4.758;2022-10-17T10:48:21;17.30;99.90
11615;DHT22;5863;52.832;4.758;2022-10-17T10:50:49;17.30;99.90
11615;DHT22;5863;52.832;4.758;2022-10-17T10:53:37;17.30;99.90
11615;DHT22;5863;52.832;4.758;2022-10-17T10:56:12;17.30;99.90
11615;DHT22;5863;52.832;4.758;2022-10-17T10:58:48;17.20;99.90
11615;DHT22;5863;52.832;4.758;2022-10-17T11:01:19;17.20;99.90
11615;DHT22;5863;52.832;4.758;2022-10-17T11:03:56;17.10;99.90
11615;DHT22;5863;52.832;4.758;2022-10-17T11:06:27;17.10;99.90
11615;DHT22;5863;52.832;4.758;2022-10-17T11:09:06;17.10;99.90
11615;DHT22;5863;52.832;4.758;2022-10-17T11:11:38;17.10;99.90
11615;DHT22;5863;52.832;4.758;2022-10-17T11:14:11;17.10;99.90
11615;DHT22;5863;52.832;4.758;2022-10-17T11:16:43;17.10;99.90
11615;DHT22;5863;52.832;4.758;2022-10-17T11:19:15;17.00;99.90
11615;DHT22;5863;52.832;4.758;2022-10-17T11:21:46;17.10;99.90
11615;DHT22;5863;52.832;4.758;2022-10-17T11:24:19;17.10;99.90
11615;DHT22;5863;52.832;4.758;2022-10-17T11:26:53;17.10;99.90
11615;DHT22;5863;52.832;4.758;2022-10-17T11:29:22;17.10;99.90
11615;DHT22;5863;52.832;4.758;2022-10-17T11:31:55;17.10;99.90
11615;DHT22;5863;52.832;4.758;2022-10-17T11:34:25;17.10;99.90
11615;DHT22;5863;52.832;4.758;2022-10-17T11:36:56;17.10;99.90
11615;DHT22;5863;52.832;4.758;2022-10-17T11:39:30;17.10;99.90
11615;DHT22;5863;52.832;4.758;2022-10-17T11:42:02;17.10;99.90
11615;DHT22;5863;52.832;4.758;2022-10-17T11:44:33;17.10;99.90
11615;DHT22;5863;52.832;4.758;2022-10-17T11:47:03;17.10;99.90
11615;DHT22;5863;52.832;4.758;2022-10-17T11:49:35;17.20;99.90
11615;DHT22;5863;52.832;4.758;2022-10-17T11:52:14;17.20;99.90
11615;DHT22;5863;52.832;4.758;2022-10-17T11:54:49;17.20;99.90
11615;DHT22;5863;52.832;4.758;2022-10-17T11:57:34;17.30;99.90
11615;DHT22;5863;52.832;4.758;2022-10-17T12:00:19;17.30;99.90
11615;DHT22;5863;52.832;4.758;2022-10-17T12:03:00;17.30;99.90
11615;DHT22;5863;52.832;4.758;2022-10-17T12:05:35;17.30;99.90
11615;DHT22;5863;52.832;4.758;2022-10-17T12:08:08;17.40;99.90
11615;DHT22;5863;52.832;4.758;2022-10-17T12:10:43;17.40;99.90
11615;DHT22;5863;52.832;4.758;2022-10-17T12:13:49;17.40;99.90
11615;DHT22;5863;52.832;4.758;2022-10-17T12:16:44;17.40;99.90
11615;DHT22;5863;52.832;4.758;2022-10-17T12:19:29;17.40;99.90
11615;DHT22;5863;52.832;4.758;2022-10-17T12:22:02;17.40;99.90
11615;DHT22;5863;52.832;4.758;2022-10-17T12:24:54;17.40;99.90
11615;DHT22;5863;52.832;4.758;2022-10-17T12:27:36;17.40;99.90
11615;DHT22;5863;52.832;4.758;2022-10-17T12:30:13;17.40;99.90
11615;DHT22;5863;52.832;4.758;2022-10-17T12:32:53;17.40;99.90
11615;DHT22;5863;52.832;4.758;2022-10-17T12:35:23;17.40;99.90
11615;DHT22;5863;52.832;4.758;2022-10-17T12:38:04;17.30;99.90
11615;DHT22;5863;52.832;4.758;2022-10-17T12:40:53;17.30;99.90
11615;DHT22;5863;52.832;4.758;2022-10-17T12:43:43;17.30;99.90
11615;DHT22;5863;52.832;4.758;2022-10-17T12:46:11;17.30;99.90
11615;DHT22;5863;52.832;4.758;2022-10-17T12:49:02;17.30;99.90
11615;DHT22;5863;52.832;4.758;2022-10-17T12:51:29;17.30;99.90
11615;DHT22;5863;52.832;4.758;2022-10-17T12:54:17;17.30;99.90
11615;DHT22;5863;52.832;4.758;2022-10-17T12:56:45;17.30;99.90
11615;DHT22;5863;52.832;4.758;2022-10-17T12:59:15;17.30;99.90
11615;DHT22;5863;52.832;4.758;2022-10-17T13:01:45;17.30;99.90
11615;DHT22;5863;52.832;4.758;2022-10-17T13:04:12;17.30;99.90
11615;DHT22;5863;52.832;4.758;2022-10-17T13:06:44;17.30;99.90
11615;DHT22;5863;52.832;4.758;2022-10-17T13:09:20;17.30;99.90
11615;DHT22;5863;52.832;4.758;2022-10-17T13:11:48;17.30;99.90
11615;DHT22;5863;52.832;4.758;2022-10-17T13:14:18;17.30;99.90
11615;DHT22;5863;52.832;4.758;2022-10-17T13:16:51;17.30;99.90
11615;DHT22;5863;52.832;4.758;2022-10-17T13:19:20;17.20;99.90
11615;DHT22;5863;52.832;4.758;2022-10-17T13:21:51;17.20;99.90
11615;DHT22;5863;52.832;4.758;2022-10-17T13:24:28;17.20;99.90
11615;DHT22;5863;52.832;4.758;2022-10-17T13:26:55;17.20;99.90
11615;DHT22;5863;52.832;4.758;2022-10-17T13:29:21;17.20;99.90
11615;DHT22;5863;52.832;4.758;2022-10-17T13:31:52;17.10;99.90
11615;DHT22;5863;52.832;4.758;2022-10-17T13:34:21;17.10;99.90
11615;DHT22;5863;52.832;4.758;2022-10-17T13:36:50;17.10;99.90
11615;DHT22;5863;52.832;4.758;2022-10-17T13:39:19;17.10;99.90
11615;DHT22;5863;52.832;4.758;2022-10-17T13:41:49;17.20;99.90
11615;DHT22;5863;52.832;4.758;2022-10-17T13:44:19;17.20;99.90
11615;DHT22;5863;52.832;4.758;2022-10-17T13:46:46;17.30;99.90
11615;DHT22;5863;52.832;4.758;2022-10-17T13:49:19;17.30;99.90
11615;DHT22;5863;52.832;4.758;2022-10-17T13:51:48;17.30;99.90
11615;DHT22;5863;52.832;4.758;2022-10-17T13:54:34;17.40;99.90
11615;DHT22;5863;52.832;4.758;2022-10-17T13:57:04;17.40;99.90
11615;DHT22;5863;52.832;4.758;2022-10-17T13:59:36;17.50;99.90
11615;DHT22;5863;52.832;4.758;2022-10-17T14:02:04;17.50;99.90
11615;DHT22;5863;52.832;4.758;2022-10-17T14:04:36;17.60;99.90
11615;DHT22;5863;52.832;4.758;2022-10-17T14:07:04;17.50;99.90
11615;DHT22;5863;52.832;4.758;2022-10-17T14:09:32;17.50;99.90
11615;DHT22;5863;52.832;4.758;2022-10-17T14:12:01;17.50;99.90
11615;DHT22;5863;52.832;4.758;2022-10-17T14:14:29;17.50;99.90
11615;DHT22;5863;52.832;4.758;2022-10-17T14:16:56;17.50;99.90
11615;DHT22;5863;52.832;4.758;2022-10-17T14:19:25;17.50;99.90
11615;DHT22;5863;52.832;4.758;2022-10-17T14:21:53;17.50;99.90
11615;DHT22;5863;52.832;4.758;2022-10-17T14:24:34;17.50;99.90
11615;DHT22;5863;52.832;4.758;2022-10-17T14:27:01;17.40;99.90
11615;DHT22;5863;52.832;4.758;2022-10-17T14:29:31;17.40;99.90
11615;DHT22;5863;52.832;4.758;2022-10-17T14:32:00;17.40;99.90
11615;DHT22;5863;52.832;4.758;2022-10-17T14:34:31;17.40;99.90
11615;DHT22;5863;52.832;4.758;2022-10-17T14:36:59;17.40;99.90
11615;DHT22;5863;52.832;4.758;2022-10-17T14:39:26;17.40;99.90
11615;DHT22;5863;52.832;4.758;2022-10-17T14:41:53;17.40;99.90
11615;DHT22;5863;52.832;4.758;2022-10-17T14:44:26;17.40;99.90
11615;DHT22;5863;52.832;4.758;2022-10-17T14:46:58;17.40;99.90
11615;DHT22;5863;52.832;4.758;2022-10-17T14:49:33;17.40;99.90
11615;DHT22;5863;52.832;4.758;2022-10-17T14:52:12;17.40;99.90
11615;DHT22;5863;52.832;4.758;2022-10-17T14:54:46;17.30;99.90
11615;DHT22;5863;52.832;4.758;2022-10-17T14:57:17;17.30;99.90
11615;DHT22;5863;52.832;4.758;2022-10-17T14:59:48;17.30;99.90
11615;DHT22;5863;52.832;4.758;2022-10-17T15:02:16;17.30;99.90
11615;DHT22;5863;52.832;4.758;2022-10-17T15:04:43;17.40;99.90
11615;DHT22;5863;52.832;4.758;2022-10-17T15:07:13;17.30;99.90
11615;DHT22;5863;52.832;4.758;2022-10-17T15:09:40;17.40;99.90
11615;DHT22;5863;52.832;4.758;2022-10-17T15:12:13;17.40;99.90
11615;DHT22;5863;52.832;4.758;2022-10-17T15:14:40;17.30;99.90
11615;DHT22;5863;52.832;4.758;2022-10-17T15:17:19;17.30;99.90
11615;DHT22;5863;52.832;4.758;2022-10-17T15:19:46;17.30;99.90
11615;DHT22;5863;52.832;4.758;2022-10-17T15:22:12;17.30;99.90
11615;DHT22;5863;52.832;4.758;2022-10-17T15:24:40;17.20;99.90
11615;DHT22;5863;52.832;4.758;2022-10-17T15:27:14;17.20;99.90
11615;DHT22;5863;52.832;4.758;2022-10-17T15:29:41;17.20;99.90
11615;DHT22;5863;52.832;4.758;2022-10-17T15:32:07;17.20;99.90
11615;DHT22;5863;52.832;4.758;2022-10-17T15:34:35;17.30;99.90
11615;DHT22;5863;52.832;4.758;2022-10-17T15:37:03;17.20;99.90
11615;DHT22;5863;52.832;4.758;2022-10-17T15:39:30;17.20;99.90
11615;DHT22;5863;52.832;4.758;2022-10-17T15:41:57;17.20;99.90
11615;DHT22;5863;52.832;4.758;2022-10-17T15:44:24;17.20;99.90
11615;DHT22;5863;52.832;4.758;2022-10-17T15:46:51;17.20;99.90
11615;DHT22;5863;52.832;4.758;2022-10-17T15:49:18;17.20;99.90
11615;DHT22;5863;52.832;4.758;2022-10-17T15:51:46;17.20;99.90
11615;DHT22;5863;52.832;4.758;2022-10-17T15:54:13;17.20;99.90
11615;DHT22;5863;52.832;4.758;2022-10-17T15:56:41;17.20;99.90
11615;DHT22;5863;52.832;4.758;2022-10-17T15:59:12;17.10;99.90
11615;DHT22;5863;52.832;4.758;2022-10-17T16:01:40;17.10;99.90
11615;DHT22;5863;52.832;4.758;2022-10-17T16:04:09;17.10;99.90
11615;DHT22;5863;52.832;4.758;2022-10-17T16:06:37;17.00;99.90
11615;DHT22;5863;52.832;4.758;2022-10-17T16:09:05;16.90;99.90